Time;durP1;ratioP1;P1;durP2;ratioP2;P2;SDS_P1;SDS_P2;PMS_P1;PMS_P2;Temp;Humidity;BMP_temperature;BMP_pressure;BME280_temperature;BME280_humidity;BME280_pressure;Samples;Min_cycle;Max_cycle;Signal;HPM_P1;HPM_P2
2023/03/19 00:01:37;;;;;;;12.25;6.63;;;10.50;1.00;;;;;;7372875;19;20010;-79
2023/03/19 00:04:07;;;;;;;12.52;7.10;;;10.40;1.00;;;;;;7371495;19;20042;-79
2023/03/19 00:06:37;;;;;;;18.15;7.50;;;10.40;1.00;;;;;;7372359;19;20013;-78
2023/03/19 00:09:06;;;;;;;12.88;6.93;;;10.30;1.00;;;;;;7371334;19;20011;-78
2023/03/19 00:11:36;;;;;;;9.40;6.43;;;10.30;1.00;;;;;;7394951;19;20014;-78
2023/03/19 00:14:07;;;;;;;12.13;6.45;;;10.20;1.00;;;;;;7371688;19;20017;-80
2023/03/19 00:16:39;;;;;;;11.45;7.18;;;10.20;1.00;;;;;;7372152;19;20025;-79
2023/03/19 00:19:09;;;;;;;10.13;6.55;;;10.20;1.00;;;;;;7368699;19;20019;-80
2023/03/19 00:21:40;;;;;;;13.52;6.82;;;10.30;1.00;;;;;;7371786;19;20006;-79
2023/03/19 00:24:10;;;;;;;11.80;6.30;;;10.30;1.00;;;;;;7372328;19;20039;-79
2023/03/19 00:26:40;;;;;;;9.50;6.88;;;10.30;1.00;;;;;;7394649;19;20018;-80
2023/03/19 00:29:11;;;;;;;12.57;7.32;;;10.20;1.00;;;;;;7368854;19;20022;-78
2023/03/19 00:31:44;;;;;;;12.55;6.57;;;10.10;1.00;;;;;;7371020;19;20006;-80
2023/03/19 00:34:17;;;;;;;13.20;7.45;;;10.10;1.00;;;;;;7372853;19;20014;-79
2023/03/19 00:36:47;;;;;;;15.02;6.50;;;10.20;1.00;;;;;;7372044;19;20066;-79
2023/03/19 00:39:17;;;;;;;10.60;5.97;;;10.10;1.00;;;;;;7370191;19;20025;-79
2023/03/19 00:41:49;;;;;;;9.75;6.38;;;10.10;1.00;;;;;;7394986;19;20502;-80
2023/03/19 00:44:19;;;;;;;10.32;6.38;;;10.10;1.00;;;;;;7371111;19;20003;-78
2023/03/19 00:46:52;;;;;;;8.95;6.50;;;10.10;1.00;;;;;;7372812;19;20619;-79
2023/03/19 00:49:22;;;;;;;10.68;6.43;;;10.10;1.00;;;;;;7368644;19;20010;-79
2023/03/19 00:51:51;;;;;;;12.45;6.80;;;10.10;1.00;;;;;;7371938;19;20018;-78
2023/03/19 00:54:21;;;;;;;10.45;6.38;;;10.10;1.00;;;;;;7370474;19;20026;-79
2023/03/19 00:56:51;;;;;;;10.15;6.93;;;10.20;1.00;;;;;;7393869;19;20059;-79
2023/03/19 00:59:21;;;;;;;15.93;6.97;;;10.20;1.00;;;;;;7368235;19;20006;-78
2023/03/19 01:01:53;;;;;;;10.02;6.32;;;10.20;1.00;;;;;;7371707;19;20044;-79
2023/03/19 01:04:23;;;;;;;13.07;6.60;;;10.20;1.00;;;;;;7371204;19;20010;-79
2023/03/19 01:06:53;;;;;;;9.07;5.70;;;10.30;1.00;;;;;;7371015;19;20074;-79
2023/03/19 01:09:23;;;;;;;11.55;6.25;;;10.30;1.00;;;;;;7368590;19;20385;-79
2023/03/19 01:11:53;;;;;;;8.40;5.50;;;10.40;1.00;;;;;;7393994;19;20017;-80
2023/03/19 01:14:23;;;;;;;11.77;5.65;;;10.50;1.00;;;;;;7370966;19;20007;-79
2023/03/19 01:16:55;;;;;;;8.00;6.00;;;10.60;1.00;;;;;;7371144;19;20094;-79
2023/03/19 01:19:26;;;;;;;7.93;5.35;;;10.60;1.00;;;;;;7367752;19;20010;-79
2023/03/19 01:21:56;;;;;;;8.15;5.70;;;10.60;1.00;;;;;;7370902;19;20022;-79
2023/03/19 01:24:25;;;;;;;9.02;5.75;;;10.60;1.00;;;;;;7371659;19;20010;-79
2023/03/19 01:26:55;;;;;;;8.60;5.97;;;10.60;1.00;;;;;;7393330;19;20021;-79
2023/03/19 01:29:25;;;;;;;11.23;6.53;;;10.60;1.00;;;;;;7368763;19;20010;-79
2023/03/19 01:31:57;;;;;;;9.00;6.43;;;10.60;1.00;;;;;;7369932;19;20082;-79
2023/03/19 01:34:27;;;;;;;13.65;7.30;;;10.60;1.00;;;;;;7369244;19;20010;-78
2023/03/19 01:36:57;;;;;;;12.45;7.05;;;10.60;1.00;;;;;;7369847;19;20014;-78
2023/03/19 01:39:27;;;;;;;9.05;7.05;;;10.60;1.00;;;;;;7368518;19;20500;-77
2023/03/19 01:41:57;;;;;;;11.82;7.40;;;10.60;1.00;;;;;;7392368;19;20031;-76
2023/03/19 01:44:29;;;;;;;8.77;6.72;;;10.60;1.00;;;;;;7369792;19;20010;-73
2023/03/19 01:47:07;;;;;;;12.40;7.13;;;10.60;1.00;;;;;;7370030;19;20480;-74
2023/03/19 01:49:39;;;;;;;10.57;6.40;;;10.60;1.00;;;;;;7368031;19;20014;-75
2023/03/19 01:52:10;;;;;;;9.82;6.78;;;10.60;1.00;;;;;;7369440;19;20019;-76
2023/03/19 01:54:41;;;;;;;8.00;6.47;;;10.60;1.00;;;;;;7367955;19;20380;-76
2023/03/19 01:57:16;;;;;;;12.77;6.43;;;10.60;1.00;;;;;;7370036;19;20010;-77
2023/03/19 01:59:48;;;;;;;13.57;6.25;;;10.50;1.00;;;;;;7390216;19;20458;-76
2023/03/19 02:02:27;;;;;;;10.30;5.45;;;10.70;1.00;;;;;;7370701;19;20014;-77
2023/03/19 02:05:02;;;;;;;11.02;4.97;;;10.80;1.00;;;;;;7368152;19;20010;-76
2023/03/19 02:07:35;;;;;;;6.28;4.30;;;10.80;1.00;;;;;;7365790;19;20078;-76
2023/03/19 02:10:10;;;;;;;5.70;3.70;;;10.90;1.00;;;;;;7363392;19;20024;-77
2023/03/19 02:12:41;;;;;;;7.65;3.90;;;10.90;1.00;;;;;;7365733;19;20013;-76
2023/03/19 02:15:11;;;;;;;6.57;3.58;;;11.00;1.00;;;;;;7365637;19;20546;-77
2023/03/19 02:17:45;;;;;;;7.30;3.90;;;11.00;1.00;;;;;;7387168;19;20010;-77
2023/03/19 02:20:25;;;;;;;5.07;3.10;;;10.90;1.00;;;;;;7363493;19;20057;-77
2023/03/19 02:23:04;;;;;;;5.35;3.05;;;11.00;1.00;;;;;;7365356;19;20065;-77
2023/03/19 02:25:43;;;;;;;4.70;3.00;;;11.00;1.00;;;;;;7370101;19;20027;-78
2023/03/19 02:28:20;;;;;;;6.57;2.42;;;11.10;1.00;;;;;;7367778;19;20010;-77
2023/03/19 02:30:50;;;;;;;4.57;2.38;;;11.10;1.00;;;;;;7366518;19;20486;-77
2023/03/19 02:33:21;;;;;;;6.07;2.22;;;11.20;1.00;;;;;;7377561;19;20048;-77
2023/03/19 02:35:53;;;;;;;5.63;2.50;;;11.20;1.00;;;;;;7422073;19;20007;-77
2023/03/19 02:38:24;;;;;;;3.83;2.40;;;11.10;1.00;;;;;;7403349;19;20006;-76
2023/03/19 02:40:59;;;;;;;6.47;2.70;;;10.90;1.00;;;;;;7389088;19;20082;-78
2023/03/19 02:43:33;;;;;;;8.27;2.88;;;10.70;1.00;;;;;;7368021;19;20017;-77
2023/03/19 02:46:03;;;;;;;6.13;2.87;;;10.60;1.00;;;;;;7370899;19;20103;-78
2023/03/19 02:48:33;;;;;;;7.20;2.95;;;10.40;1.00;;;;;;7367850;19;20078;-78
2023/03/19 02:51:03;;;;;;;8.15;2.90;;;10.30;2.00;;;;;;7368446;19;20023;-79
2023/03/19 02:53:33;;;;;;;8.98;3.47;;;10.30;5.60;;;;;;7389185;19;20111;-79
2023/03/19 02:56:03;;;;;;;4.97;3.30;;;10.30;9.60;;;;;;7367281;19;20010;-79
2023/03/19 02:58:36;;;;;;;4.05;3.55;;;10.30;13.90;;;;;;7365651;19;20010;-78
2023/03/19 03:01:06;;;;;;;8.15;3.78;;;10.10;18.00;;;;;;7368289;19;20010;-78
2023/03/19 03:03:36;;;;;;;5.75;3.58;;;10.00;20.40;;;;;;7366858;19;20101;-78
2023/03/19 03:06:06;;;;;;;6.28;3.53;;;10.00;22.60;;;;;;7368284;19;20030;-77
2023/03/19 03:08:36;;;;;;;7.78;3.70;;;9.90;23.70;;;;;;7387413;19;20471;-78
2023/03/19 03:11:06;;;;;;;8.18;4.15;;;9.80;24.20;;;;;;7365957;19;20352;-78
2023/03/19 03:13:38;;;;;;;5.93;3.55;;;9.90;25.60;;;;;;7366947;19;20010;-79
2023/03/19 03:16:09;;;;;;;4.38;3.78;;;9.80;26.10;;;;;;7366307;19;20010;-79
2023/03/19 03:18:39;;;;;;;5.80;3.72;;;9.80;27.40;;;;;;7363899;19;20730;-78
2023/03/19 03:21:09;;;;;;;5.22;3.65;;;9.80;27.40;;;;;;7371721;19;20458;-78
2023/03/19 03:23:38;;;;;;;6.97;4.10;;;9.80;27.50;;;;;;7395953;19;20010;-78
2023/03/19 03:26:08;;;;;;;8.80;4.50;;;9.80;28.30;;;;;;7373412;19;20074;-79
2023/03/19 03:28:41;;;;;;;7.10;4.00;;;9.90;29.20;;;;;;7370636;19;20014;-79
2023/03/19 03:31:11;;;;;;;6.60;3.92;;;9.80;29.50;;;;;;7374753;19;20010;-79
2023/03/19 03:33:41;;;;;;;7.60;4.65;;;9.80;29.50;;;;;;7374280;19;20024;-79
2023/03/19 03:36:11;;;;;;;6.75;4.47;;;9.80;30.40;;;;;;7374326;19;20335;-79
2023/03/19 03:38:40;;;;;;;7.88;4.43;;;9.80;31.50;;;;;;7394900;19;20030;-79
2023/03/19 03:41:10;;;;;;;5.88;4.32;;;9.80;31.20;;;;;;7372788;19;20006;-79
2023/03/19 03:43:43;;;;;;;6.30;4.38;;;9.90;31.40;;;;;;7372485;19;20010;-79
2023/03/19 03:46:13;;;;;;;6.57;4.18;;;9.90;30.70;;;;;;7375267;19;20010;-80
2023/03/19 03:48:43;;;;;;;7.13;4.65;;;9.80;29.50;;;;;;7371644;19;20021;-79
2023/03/19 03:51:13;;;;;;;8.23;5.13;;;9.90;30.00;;;;;;7374566;19;20010;-80
2023/03/19 03:53:43;;;;;;;5.40;4.32;;;9.90;32.90;;;;;;7394890;19;20018;-79
2023/03/19 03:56:13;;;;;;;8.00;4.50;;;9.80;33.50;;;;;;7372168;19;20007;-79
2023/03/19 03:58:46;;;;;;;8.25;5.13;;;9.80;34.60;;;;;;7370137;19;20018;-78
2023/03/19 04:01:17;;;;;;;7.03;4.55;;;9.80;35.00;;;;;;7373064;19;20113;-79
2023/03/19 04:03:48;;;;;;;6.03;4.75;;;9.70;36.20;;;;;;7371857;19;20017;-79
2023/03/19 04:06:20;;;;;;;8.38;4.65;;;9.80;37.80;;;;;;7374679;19;20533;-79
2023/03/19 04:08:50;;;;;;;10.50;4.80;;;9.80;37.90;;;;;;7393912;19;20010;-79
2023/03/19 04:11:20;;;;;;;7.25;4.70;;;9.70;39.20;;;;;;7372018;19;20363;-79
2023/03/19 04:13:53;;;;;;;7.35;4.32;;;9.60;39.80;;;;;;7371997;19;20026;-79
2023/03/19 04:16:22;;;;;;;6.72;4.57;;;9.60;40.40;;;;;;7372635;19;20106;-79
2023/03/19 04:18:52;;;;;;;5.82;4.60;;;9.60;37.80;;;;;;7369753;19;20073;-79
2023/03/19 04:21:22;;;;;;;7.97;4.70;;;9.70;35.80;;;;;;7373043;19;20014;-79
2023/03/19 04:23:52;;;;;;;7.88;5.60;;;9.60;33.40;;;;;;7391779;19;20030;-79
2023/03/19 04:26:22;;;;;;;9.13;5.13;;;9.60;32.80;;;;;;7373145;19;20617;-78
2023/03/19 04:28:54;;;;;;;9.27;5.40;;;9.70;31.20;;;;;;7368722;19;20011;-78
2023/03/19 04:31:24;;;;;;;7.45;6.28;;;9.80;30.60;;;;;;7370381;19;20018;-78
2023/03/19 04:33:54;;;;;;;8.38;6.00;;;9.70;29.70;;;;;;7372658;19;20021;-79
2023/03/19 04:36:24;;;;;;;7.38;5.97;;;9.80;29.50;;;;;;7371356;19;20019;-79
2023/03/19 04:38:54;;;;;;;9.35;6.00;;;9.80;29.50;;;;;;7392763;19;20017;-79
2023/03/19 04:41:25;;;;;;;9.63;6.25;;;9.80;28.80;;;;;;7370966;19;20020;-78
2023/03/19 04:43:57;;;;;;;9.65;6.45;;;9.80;28.30;;;;;;7370403;19;20074;-78
2023/03/19 04:46:27;;;;;;;8.07;5.75;;;9.80;28.60;;;;;;7372486;19;20702;-79
2023/03/19 04:48:58;;;;;;;9.23;6.78;;;9.80;28.90;;;;;;7369467;19;20091;-78
2023/03/19 04:51:28;;;;;;;6.75;5.68;;;9.80;28.60;;;;;;7370641;19;20015;-78
2023/03/19 04:53:59;;;;;;;8.18;6.35;;;9.80;28.00;;;;;;7393513;19;20010;-79
2023/03/19 04:56:29;;;;;;;9.60;6.55;;;9.80;28.10;;;;;;7372520;19;20086;-79
2023/03/19 04:59:01;;;;;;;10.57;7.32;;;9.70;27.80;;;;;;7368355;19;20393;-79
2023/03/19 05:01:31;;;;;;;10.30;7.85;;;9.80;27.50;;;;;;7370691;19;20021;-78
2023/03/19 05:04:01;;;;;;;13.30;6.93;;;9.90;26.20;;;;;;7370381;19;20018;-78
2023/03/19 05:06:32;;;;;;;11.32;7.30;;;9.90;25.10;;;;;;7370887;19;20029;-78
2023/03/19 05:09:02;;;;;;;10.65;6.82;;;9.90;23.50;;;;;;7370634;19;20026;-78
2023/03/19 05:11:32;;;;;;;10.27;6.68;;;10.00;22.30;;;;;;7392994;19;20002;-78
2023/03/19 05:14:04;;;;;;;8.85;6.50;;;10.00;21.60;;;;;;7371359;19;20090;-79
2023/03/19 05:16:34;;;;;;;8.30;6.45;;;10.00;21.10;;;;;;7370026;19;20011;-78
2023/03/19 05:19:04;;;;;;;7.88;6.25;;;10.00;19.80;;;;;;7368675;19;20024;-78
2023/03/19 05:21:34;;;;;;;8.35;6.20;;;10.00;19.70;;;;;;7370265;19;20466;-78
2023/03/19 05:24:04;;;;;;;9.75;6.85;;;10.00;19.60;;;;;;7371454;19;20006;-78
2023/03/19 05:26:34;;;;;;;6.93;6.00;;;9.90;21.40;;;;;;7393603;19;20018;-79
2023/03/19 05:29:09;;;;;;;9.60;6.55;;;9.90;23.20;;;;;;7368998;19;20018;-77
2023/03/19 05:31:39;;;;;;;9.75;6.35;;;9.90;22.10;;;;;;7369313;19;20025;-78
2023/03/19 05:34:09;;;;;;;8.18;6.55;;;9.90;21.80;;;;;;7371323;19;20114;-78
2023/03/19 05:36:39;;;;;;;9.10;6.45;;;9.90;20.50;;;;;;7368732;19;20021;-78
2023/03/19 05:39:09;;;;;;;8.70;6.68;;;9.90;21.50;;;;;;7368770;19;20014;-77
2023/03/19 05:41:39;;;;;;;11.75;7.07;;;9.80;22.70;;;;;;7392400;19;20017;-78
2023/03/19 05:44:11;;;;;;;7.80;6.40;;;9.80;22.60;;;;;;7366286;19;20010;-78
2023/03/19 05:46:42;;;;;;;12.52;6.70;;;9.80;22.60;;;;;;7369551;19;20021;-77
2023/03/19 05:49:12;;;;;;;11.18;6.75;;;9.80;22.70;;;;;;7369508;19;20021;-78
2023/03/19 05:51:42;;;;;;;10.45;6.60;;;9.80;23.40;;;;;;7369470;19;20014;-77
2023/03/19 05:54:12;;;;;;;8.10;6.40;;;9.80;24.30;;;;;;7370619;19;20002;-78
2023/03/19 05:56:42;;;;;;;8.98;6.30;;;9.80;23.60;;;;;;7393309;19;20090;-78
2023/03/19 05:59:15;;;;;;;9.45;6.35;;;9.80;23.50;;;;;;7370816;19;20044;-78
2023/03/19 06:01:44;;;;;;;8.50;6.28;;;9.80;23.00;;;;;;7371463;19;20090;-77
2023/03/19 06:04:14;;;;;;;11.02;6.57;;;9.80;24.00;;;;;;7369449;19;20095;-77
2023/03/19 06:06:44;;;;;;;7.72;6.28;;;9.80;23.90;;;;;;7368240;19;20018;-77
2023/03/19 06:09:14;;;;;;;10.15;7.05;;;9.80;23.40;;;;;;7389455;19;20042;-77
2023/03/19 06:11:44;;;;;;;10.23;6.75;;;9.70;24.40;;;;;;7425500;19;20007;-77
2023/03/19 06:14:16;;;;;;;9.25;6.45;;;9.80;24.50;;;;;;7405044;19;20015;-76
2023/03/19 06:16:46;;;;;;;9.80;7.20;;;9.80;24.10;;;;;;7377758;19;20011;-77
2023/03/19 06:19:16;;;;;;;9.75;6.53;;;9.80;23.60;;;;;;7369529;19;20021;-77
2023/03/19 06:21:46;;;;;;;8.45;6.00;;;9.80;23.40;;;;;;7369313;19;20014;-77
2023/03/19 06:24:16;;;;;;;10.70;6.03;;;9.80;22.60;;;;;;7370197;19;20014;-76
2023/03/19 06:26:45;;;;;;;12.10;5.72;;;9.80;22.70;;;;;;7391314;19;20431;-76
2023/03/19 06:29:18;;;;;;;9.27;5.57;;;9.80;22.60;;;;;;7367215;19;20017;-76
2023/03/19 06:31:48;;;;;;;9.80;6.05;;;9.90;22.60;;;;;;7367998;19;20081;-77
2023/03/19 06:34:17;;;;;;;8.60;5.60;;;9.90;22.40;;;;;;7368559;19;20501;-76
2023/03/19 06:36:47;;;;;;;7.53;5.13;;;9.90;21.50;;;;;;7367150;19;20967;-76
2023/03/19 06:39:17;;;;;;;6.40;5.07;;;10.00;19.50;;;;;;7366533;19;20623;-76
2023/03/19 06:41:47;;;;;;;7.40;5.15;;;10.00;18.80;;;;;;7391371;19;20451;-76
2023/03/19 06:44:19;;;;;;;7.15;4.57;;;10.10;17.60;;;;;;7367393;19;20013;-77
2023/03/19 06:46:50;;;;;;;9.10;5.20;;;10.10;16.80;;;;;;7367742;19;20044;-77
2023/03/19 06:49:20;;;;;;;6.88;4.90;;;10.20;17.30;;;;;;7367137;19;20010;-76
2023/03/19 06:51:50;;;;;;;9.93;5.13;;;10.20;16.20;;;;;;7368196;19;20055;-76
2023/03/19 06:54:20;;;;;;;6.35;4.70;;;10.20;15.60;;;;;;7366328;19;20023;-75
2023/03/19 06:56:50;;;;;;;6.47;4.47;;;10.30;15.20;;;;;;7389583;19;20375;-76
2023/03/19 06:59:23;;;;;;;6.70;4.75;;;10.30;15.20;;;;;;7364248;19;20029;-76
2023/03/19 07:01:53;;;;;;;10.40;6.95;;;10.30;15.20;;;;;;7368431;19;20066;-77
2023/03/19 07:04:23;;;;;;;9.57;6.93;;;10.40;15.30;;;;;;7367956;19;20093;-77
2023/03/19 07:06:52;;;;;;;8.60;6.18;;;10.40;14.00;;;;;;7366800;19;20487;-77
2023/03/19 07:09:22;;;;;;;7.97;5.10;;;10.50;14.00;;;;;;7367022;19;20018;-77
2023/03/19 07:11:52;;;;;;;6.07;4.30;;;10.60;10.90;;;;;;7388845;19;20078;-76
2023/03/19 07:14:25;;;;;;;8.15;4.40;;;10.70;9.00;;;;;;7367620;19;20014;-78
2023/03/19 07:16:55;;;;;;;6.75;4.00;;;10.80;8.30;;;;;;7367575;19;20123;-77
2023/03/19 07:19:25;;;;;;;6.75;4.07;;;10.90;7.00;;;;;;7365232;19;20015;-77
2023/03/19 07:21:55;;;;;;;5.70;3.80;;;10.90;6.40;;;;;;7367454;19;20029;-77
2023/03/19 07:24:25;;;;;;;7.35;4.22;;;11.00;5.90;;;;;;7367099;19;20382;-78
2023/03/19 07:26:55;;;;;;;6.55;4.25;;;11.00;5.10;;;;;;7389282;19;20769;-78
2023/03/19 07:29:27;;;;;;;6.97;4.45;;;11.00;5.70;;;;;;7365370;19;20024;-77
2023/03/19 07:31:57;;;;;;;8.98;4.20;;;10.90;4.70;;;;;;7367418;19;20466;-78
2023/03/19 07:34:27;;;;;;;5.07;4.07;;;11.00;4.70;;;;;;7365747;19;20014;-78
2023/03/19 07:36:57;;;;;;;10.20;4.13;;;11.00;4.80;;;;;;7367781;19;20506;-77
2023/03/19 07:39:27;;;;;;;6.55;4.00;;;11.10;4.00;;;;;;7364404;19;20025;-77
2023/03/19 07:41:57;;;;;;;5.45;4.22;;;11.10;4.90;;;;;;7390412;19;20013;-78
2023/03/19 07:44:29;;;;;;;5.50;4.13;;;11.10;3.10;;;;;;7366537;19;20013;-78
2023/03/19 07:46:59;;;;;;;6.05;3.92;;;11.20;2.30;;;;;;7366189;19;20087;-78
2023/03/19 07:49:29;;;;;;;8.30;4.60;;;11.30;2.50;;;;;;7364593;19;20042;-77
2023/03/19 07:51:58;;;;;;;6.63;4.28;;;11.30;1.80;;;;;;7366603;19;20025;-78
2023/03/19 07:54:29;;;;;;;7.47;3.95;;;11.40;1.00;;;;;;7366017;19;20018;-77
2023/03/19 07:56:59;;;;;;;8.00;5.15;;;11.40;1.00;;;;;;7387802;19;20031;-75
2023/03/19 07:59:31;;;;;;;7.63;4.32;;;11.40;1.00;;;;;;7387217;19;20078;-78
2023/03/19 08:02:01;;;;;;;5.95;4.45;;;11.60;1.00;;;;;;7366736;19;20017;-78
2023/03/19 08:04:31;;;;;;;10.13;4.60;;;11.80;1.00;;;;;;7364767;19;20014;-76
2023/03/19 08:07:02;;;;;;;7.47;4.40;;;11.80;1.00;;;;;;7368897;19;20006;-77
2023/03/19 08:09:32;;;;;;;5.70;4.20;;;11.70;1.00;;;;;;7372709;19;20529;-77
2023/03/19 08:12:02;;;;;;;6.40;4.15;;;11.90;1.00;;;;;;7374762;19;20073;-78
2023/03/19 08:14:35;;;;;;;4.97;3.80;;;12.00;1.00;;;;;;7396016;19;20023;-78
2023/03/19 08:17:05;;;;;;;6.78;4.03;;;12.20;1.00;;;;;;7372180;19;20021;-78
2023/03/19 08:19:35;;;;;;;4.60;3.63;;;12.20;1.00;;;;;;7370430;19;20081;-78
2023/03/19 08:22:05;;;;;;;5.28;3.60;;;12.20;1.00;;;;;;7373361;19;20086;-78
2023/03/19 08:24:35;;;;;;;8.40;4.28;;;12.20;1.00;;;;;;7372576;19;20016;-77
2023/03/19 08:27:05;;;;;;;4.55;3.88;;;12.30;1.00;;;;;;7373040;19;20731;-77
2023/03/19 08:29:38;;;;;;;10.48;4.28;;;12.30;1.00;;;;;;7393288;19;20018;-79
2023/03/19 08:32:08;;;;;;;7.78;4.28;;;12.30;1.00;;;;;;7372174;19;20448;-78
2023/03/19 08:34:38;;;;;;;9.10;4.40;;;12.40;1.00;;;;;;7371805;19;20030;-77
2023/03/19 08:37:08;;;;;;;5.93;4.40;;;12.20;1.00;;;;;;7371245;19;20025;-77
2023/03/19 08:39:38;;;;;;;6.85;4.43;;;12.30;1.00;;;;;;7370645;19;20021;-78
2023/03/19 08:42:08;;;;;;;5.97;4.45;;;12.30;1.00;;;;;;7373224;19;20014;-77
2023/03/19 08:44:40;;;;;;;6.15;3.85;;;12.20;1.00;;;;;;7393873;19;20616;-77
2023/03/19 08:47:11;;;;;;;6.72;4.30;;;12.30;1.00;;;;;;7371424;19;20018;-78
2023/03/19 08:49:41;;;;;;;6.95;4.50;;;12.30;1.00;;;;;;7369505;19;20031;-77
2023/03/19 08:52:11;;;;;;;6.18;4.15;;;12.30;1.00;;;;;;7371904;19;20053;-78
2023/03/19 08:54:41;;;;;;;5.43;3.95;;;12.30;1.00;;;;;;7370654;19;20010;-76
2023/03/19 08:57:10;;;;;;;8.23;3.85;;;12.50;1.00;;;;;;7371598;19;20025;-76
2023/03/19 08:59:43;;;;;;;6.50;3.80;;;13.00;1.00;;;;;;7390966;19;20376;-76
2023/03/19 09:02:13;;;;;;;7.55;4.05;;;13.00;1.00;;;;;;7357070;19;20069;-76
2023/03/19 09:04:43;;;;;;;7.35;4.10;;;13.10;1.00;;;;;;7368883;19;20082;-76
2023/03/19 09:07:14;;;;;;;5.45;3.80;;;13.30;1.00;;;;;;7369807;19;20017;-76
2023/03/19 09:09:45;;;;;;;6.07;3.50;;;13.50;1.00;;;;;;7369873;19;20018;-75
2023/03/19 09:12:17;;;;;;;5.50;3.50;;;13.60;1.00;;;;;;7372664;19;20014;-75
2023/03/19 09:14:50;;;;;;;7.03;3.83;;;13.90;1.00;;;;;;7393016;19;20010;-76
2023/03/19 09:17:20;;;;;;;4.95;3.53;;;14.00;1.00;;;;;;7369499;19;20501;-77
2023/03/19 09:19:50;;;;;;;7.65;3.63;;;14.30;1.00;;;;;;7367205;19;20031;-77
2023/03/19 09:22:20;;;;;;;4.93;3.10;;;14.40;1.00;;;;;;7370120;19;20077;-76
2023/03/19 09:24:49;;;;;;;5.90;3.20;;;14.40;1.00;;;;;;7371020;19;20033;-76
2023/03/19 09:27:19;;;;;;;4.50;3.42;;;14.50;1.00;;;;;;7370962;19;20015;-76
2023/03/19 09:29:52;;;;;;;6.50;3.13;;;14.40;1.00;;;;;;7391321;19;20014;-76
2023/03/19 09:32:22;;;;;;;4.53;2.60;;;14.60;1.00;;;;;;7370595;19;20021;-76
2023/03/19 09:34:52;;;;;;;8.80;2.60;;;14.60;1.00;;;;;;7369335;19;20018;-76
2023/03/19 09:37:21;;;;;;;4.60;2.85;;;14.40;1.00;;;;;;7367470;19;20470;-76
2023/03/19 09:39:51;;;;;;;3.47;2.17;;;14.40;1.00;;;;;;7367603;19;20424;-76
2023/03/19 09:42:36;;;;;;;6.07;2.83;;;14.40;1.00;;;;;;7371143;19;20008;-76
2023/03/19 09:45:15;;;;;;;5.60;2.70;;;14.40;1.00;;;;;;7369717;19;20089;-76
2023/03/19 09:47:47;;;;;;;3.88;2.35;;;14.80;1.00;;;;;;7390605;19;20030;-77
2023/03/19 09:50:19;;;;;;;4.78;2.50;;;14.90;1.00;;;;;;7367457;19;20010;-76
2023/03/19 09:52:52;;;;;;;3.90;2.15;;;14.80;1.00;;;;;;7369411;19;20497;-76
2023/03/19 09:55:35;;;;;;;6.88;2.55;;;15.00;1.00;;;;;;7368505;19;20014;-77
2023/03/19 09:58:14;;;;;;;5.90;2.70;;;15.20;1.00;;;;;;7368677;19;20038;-77
2023/03/19 10:00:49;;;;;;;5.10;3.00;;;15.20;1.00;;;;;;7367627;19;20843;-76
2023/03/19 10:03:33;;;;;;;3.38;2.60;;;15.20;1.00;;;;;;7371163;19;20030;-75
2023/03/19 10:06:17;;;;;;;4.70;2.47;;;15.30;1.00;;;;;;7370471;19;20014;-74
2023/03/19 10:09:02;;;;;;;3.97;2.78;;;15.20;1.00;;;;;;7391379;19;20021;-76
2023/03/19 10:11:37;;;;;;;;;;;14.70;1.00;;;;;;7369457;19;20025;-76
2023/03/19 10:14:35;;;;;;;4.78;2.70;;;14.90;1.00;;;;;;7369067;19;19919;-76
2023/03/19 10:17:14;;;;;;;7.20;2.80;;;15.10;1.00;;;;;;7367365;19;20015;-75
2023/03/19 10:19:50;;;;;;;5.00;2.40;;;15.40;1.00;;;;;;7366227;19;20010;-76
2023/03/19 10:22:23;;;;;;;5.70;2.70;;;15.50;1.00;;;;;;7366951;19;20003;-76
2023/03/19 10:24:58;;;;;;;3.58;2.50;;;15.80;1.00;;;;;;7369417;19;20022;-77
2023/03/19 10:27:30;;;;;;;5.28;2.40;;;15.60;1.00;;;;;;7366723;19;20014;-77
2023/03/19 10:29:59;;;;;;;7.38;3.20;;;15.40;1.00;;;;;;7384183;19;20018;-74
2023/03/19 10:32:42;;;;;;;6.97;2.92;;;15.10;1.00;;;;;;7389882;19;20010;-77
2023/03/19 10:35:20;;;;;;;4.55;2.47;;;15.10;1.00;;;;;;7368607;19;20474;-77
2023/03/19 10:37:53;;;;;;;4.95;2.65;;;15.20;1.00;;;;;;7366695;19;20006;-77
2023/03/19 10:40:27;;;;;;;6.45;2.40;;;15.40;1.00;;;;;;7365758;19;20094;-78
2023/03/19 10:43:07;;;;;;;5.88;2.97;;;15.60;1.00;;;;;;7367743;19;20014;-76
2023/03/19 10:45:38;;;;;;;5.38;2.70;;;15.60;1.00;;;;;;7368962;19;20018;-77
2023/03/19 10:48:15;;;;;;;4.68;3.03;;;15.70;1.00;;;;;;7367753;19;20459;-77
2023/03/19 10:50:50;;;;;;;6.28;3.42;;;15.30;1.00;;;;;;7388978;19;20029;-77
2023/03/19 10:53:33;;;;;;;3.05;2.30;;;15.40;1.00;;;;;;7367955;19;20010;-77
2023/03/19 10:56:06;;;;;;;7.20;2.40;;;15.70;1.00;;;;;;7365449;19;20454;-78
2023/03/19 10:58:39;;;;;;;4.93;2.40;;;16.00;1.00;;;;;;7365439;19;20506;-77
2023/03/19 11:01:11;;;;;;;7.07;2.97;;;15.80;1.00;;;;;;7368017;19;20010;-76
2023/03/19 11:03:52;;;;;;;4.75;2.58;;;15.70;1.00;;;;;;7366162;19;20018;-77
2023/03/19 11:06:29;;;;;;;7.22;2.20;;;15.90;1.00;;;;;;7366856;19;20085;-76
2023/03/19 11:09:01;;;;;;;4.30;2.25;;;16.00;1.00;;;;;;7389220;19;20018;-76
2023/03/19 11:11:43;;;;;;;4.20;2.50;;;15.90;1.00;;;;;;7367285;19;20015;-77
2023/03/19 11:14:18;;;;;;;3.17;2.05;;;15.90;1.00;;;;;;7366189;19;20014;-77
2023/03/19 11:16:56;;;;;;;6.65;2.17;;;15.90;1.00;;;;;;7365930;19;20017;-77
2023/03/19 11:19:32;;;;;;;3.95;2.35;;;16.10;1.00;;;;;;7365142;19;20009;-78
2023/03/19 11:22:11;;;;;;;3.33;2.35;;;16.00;1.00;;;;;;7366405;19;20006;-77
2023/03/19 11:24:43;;;;;;;4.35;2.47;;;16.10;1.00;;;;;;7367234;19;20014;-77
2023/03/19 11:27:14;;;;;;;8.15;2.40;;;16.20;1.00;;;;;;7367472;19;20013;-77
2023/03/19 11:29:46;;;;;;;5.05;2.92;;;16.30;1.00;;;;;;7386714;19;20086;-77
2023/03/19 11:32:44;;;;;;;4.30;2.50;;;16.30;1.00;;;;;;7366074;19;20053;-77
2023/03/19 11:35:21;;;;;;;4.88;1.98;;;16.70;1.00;;;;;;7366097;19;21459;-77
2023/03/19 11:37:56;;;;;;;4.30;1.88;;;16.70;1.00;;;;;;7365310;19;20094;-77
2023/03/19 11:40:36;;;;;;;4.18;2.03;;;16.70;1.00;;;;;;7364475;19;20006;-77
2023/03/19 11:43:24;;;;;;;4.60;2.15;;;16.80;1.00;;;;;;7375145;19;20418;-77
2023/03/19 11:46:02;;;;;;;5.15;2.28;;;16.90;1.00;;;;;;7374951;19;20015;-77
2023/03/19 11:48:45;;;;;;;3.95;2.03;;;16.80;1.00;;;;;;7371502;19;20474;-69
2023/03/19 11:51:22;;;;;;;4.30;2.05;;;16.90;1.00;;;;;;7371308;19;20434;-67
2023/03/19 11:54:06;;;;;;;3.90;1.75;;;16.80;1.00;;;;;;7392517;19;20078;-69
2023/03/19 11:56:43;;;;;;;6.18;2.33;;;17.50;1.00;;;;;;7372562;19;20477;-68
2023/03/19 11:59:39;;;;;;;2.92;1.80;;;17.50;1.00;;;;;;7370021;19;20066;-69
2023/03/19 12:02:42;;;;;;;2.95;2.00;;;17.80;1.00;;;;;;7371151;19;20011;-68
2023/03/19 12:05:22;;;;;;;6.38;2.40;;;17.60;1.00;;;;;;7371611;19;20417;-68
2023/03/19 12:08:07;;;;;;;3.72;2.40;;;17.30;1.00;;;;;;7371275;19;20408;-70
2023/03/19 12:10:46;;;;;;;4.40;2.10;;;17.60;1.00;;;;;;7369501;19;20010;-70
2023/03/19 12:13:27;;;;;;;5.00;2.25;;;17.50;1.00;;;;;;7373229;19;20003;-69
2023/03/19 12:16:07;;;;;;;4.40;1.88;;;17.80;1.00;;;;;;7371124;19;20016;-69
2023/03/19 12:19:04;;;;;;;3.63;2.03;;;17.80;1.00;;;;;;7372823;19;20011;-69
2023/03/19 12:21:43;;;;;;;3.53;2.00;;;17.60;1.00;;;;;;7370967;19;20018;-69
2023/03/19 12:24:27;;;;;;;4.68;2.25;;;17.60;1.00;;;;;;7371526;19;20349;-69
2023/03/19 12:27:07;;;;;;;3.17;1.80;;;17.30;1.00;;;;;;7393547;19;20014;-69
2023/03/19 12:29:45;;;;;;;5.95;2.50;;;17.00;1.00;;;;;;7370442;19;20038;-69
2023/03/19 12:32:32;;;;;;;3.97;2.10;;;17.10;1.00;;;;;;7371945;19;20369;-69
2023/03/19 12:35:06;;;;;;;7.22;2.40;;;17.10;1.00;;;;;;7370233;19;20507;-69
2023/03/19 12:37:40;;;;;;;3.75;2.33;;;16.80;1.00;;;;;;7368540;19;20383;-69
2023/03/19 12:40:26;;;;;;;6.50;2.30;;;16.40;1.00;;;;;;7369581;19;20027;-69
2023/03/19 12:42:58;;;;;;;5.03;2.00;;;16.70;1.00;;;;;;7370016;19;20030;-69
2023/03/19 12:45:33;;;;;;;4.65;2.20;;;17.00;1.00;;;;;;7370946;19;20013;-68
2023/03/19 12:48:09;;;;;;;4.00;2.10;;;17.00;1.00;;;;;;7368469;19;20022;-68
2023/03/19 12:50:42;;;;;;;7.22;2.83;;;16.00;1.00;;;;;;7391712;19;20010;-69
2023/03/19 12:53:22;;;;;;;4.63;1.90;;;15.70;1.00;;;;;;7369781;19;20010;-69
2023/03/19 12:55:59;;;;;;;4.78;1.92;;;14.90;1.00;;;;;;7370875;19;20387;-69
2023/03/19 12:58:40;;;;;;;3.22;1.98;;;14.60;1.00;;;;;;7371258;19;20006;-71
2023/03/19 13:01:15;;;;;;;3.15;1.90;;;14.80;1.00;;;;;;7370327;19;20006;-69
2023/03/19 13:03:56;;;;;;;3.45;1.70;;;14.70;1.00;;;;;;7370271;19;20523;-68
2023/03/19 13:06:29;;;;;;;5.60;2.13;;;14.50;1.00;;;;;;7370149;19;20368;-69
2023/03/19 13:09:06;;;;;;;2.70;1.80;;;14.40;1.00;;;;;;7392861;19;20014;-67
2023/03/19 13:11:47;;;;;;;5.40;1.95;;;14.40;1.00;;;;;;7370631;19;20410;-67
2023/03/19 13:14:24;;;;;;;5.93;2.15;;;14.30;1.00;;;;;;7370707;19;20491;-67
2023/03/19 13:16:59;;;;;;;5.20;1.95;;;14.10;1.00;;;;;;7368867;19;20017;-67
2023/03/19 13:19:35;;;;;;;4.70;1.80;;;13.70;1.00;;;;;;7368144;19;20010;-67
2023/03/19 13:22:10;;;;;;;4.78;1.83;;;13.70;1.00;;;;;;7368900;19;20019;-68
2023/03/19 13:24:43;;;;;;;4.07;2.05;;;13.30;1.00;;;;;;7370861;19;20506;-68